Latest Weather Observations for Cabramurra

IDN60801

Issued at 11:33 pm EST Saturday 1 October 2016 (issued every 30 minutes, with the page automatically refreshed every 10 minutes)

About weather observations | Map of weather stations | Latest weather observations for NSW | Other Formats
Station Details ID: 072161 Name: CABRAMURRA SMHEA AWS Lat: -35.94 Lon: 148.38 Height: 1482.4 m
Data from the previous 72 hours. | See also: Recent months at Cabramurra
Date/Time
EST
Temp
°C
App
Temp
°C
Dew
Point
°C
Rel
Hum
%
Delta-T
°C
Wind Press
QNH
hPa
Press
MSL
hPa
Rain since
9am
mm
Dir  Spd
km/h
Gust
km/h
Spd
kts
Gust
kts
01/11:30pm 1.4 -7.0 1.4 100 0.0 WNW 35 48 19 26 - - -
01/11:17pm 1.5 -5.6 1.5 100 0.0 WNW 28 46 15 25 - - -
01/11:00pm 1.7 -5.3 1.7 100 0.0 WNW 28 43 15 23 - - -
01/10:30pm 1.8 -5.2 1.8 100 0.0 WNW 28 48 15 26 - - -
01/10:27pm 1.8 -5.6 1.8 100 0.0 WNW 30 48 16 26 - - -
01/10:00pm 1.6 -4.3 1.6 100 0.0 WNW 22 35 12 19 - - -
01/09:30pm 1.7 -4.6 1.7 100 0.0 WNW 24 37 13 20 - - -
01/09:00pm 1.5 -4.8 1.5 100 0.0 WNW 24 35 13 19 - - 1.0
01/08:30pm 1.5 -5.6 1.5 100 0.0 WNW 28 48 15 26 - - -
01/08:29pm 1.4 -5.7 1.4 100 0.0 WNW 28 48 15 26 - - -
01/08:00pm 1.5 -6.5 1.5 100 0.0 WNW 33 50 18 27 - - -
01/07:30pm 1.9 -5.9 1.9 100 0.0 W 32 50 17 27 - - -
01/07:05pm 1.8 -6.6 1.8 100 0.0 WNW 35 54 19 29 - - -
01/07:00pm 1.9 -6.8 1.9 100 0.0 WNW 37 54 20 29 - - -
01/06:30pm 2.1 -6.6 2.1 100 0.0 WNW 37 59 20 32 - - -
01/06:00pm 2.1 -6.6 2.1 100 0.0 WNW 37 56 20 30 - - -
01/05:31pm 2.6 -6.0 2.6 100 0.0 W 37 56 20 30 - - -
01/05:30pm 2.6 -6.4 2.6 100 0.0 W 39 56 21 30 - - -
01/05:00pm 2.7 -7.0 2.7 100 0.0 WNW 43 61 23 33 - - -
01/04:30pm 2.8 -7.1 2.8 100 0.0 WNW 44 65 24 35 - - -
01/04:00pm 2.9 -7.0 2.9 100 0.0 WNW 44 65 24 35 - - -
01/03:30pm 3.1 -6.7 3.1 100 0.0 WNW 44 69 24 37 - - -
01/03:00pm 3.0 -6.3 3.0 100 0.0 WNW 41 63 22 34 - - -
01/02:30pm 3.0 -6.9 3.0 100 0.0 WNW 44 65 24 35 - - -
01/02:09pm 3.1 -6.6 3.1 100 0.0 WNW 43 61 23 33 - - -
01/01:37pm 2.9 -6.0 2.9 100 0.0 WNW 39 57 21 31 - - 6.2
01/01:30pm 2.9 -6.8 2.9 100 0.0 WNW 43 57 23 31 - - 6.2
01/01:00pm 2.8 -7.1 2.8 100 0.0 WNW 44 65 24 35 - - 5.8
01/12:30pm 2.7 -6.3 2.7 100 0.0 WNW 39 61 21 33 - - 5.4
01/12:01pm 2.8 -6.1 2.8 100 0.0 WNW 39 57 21 31 - - 4.6
01/12:00pm 2.8 -6.5 2.8 100 0.0 WNW 41 57 22 31 - - 4.6
01/11:30am 2.9 -6.0 2.9 100 0.0 WNW 39 63 21 34 - - 4.2
01/11:00am 2.8 -6.9 2.8 100 0.0 WNW 43 63 23 34 - - 3.8
01/10:30am 3.0 -4.6 3.0 100 0.0 W 32 56 17 30 - - 2.4
01/10:00am 2.7 -8.0 2.7 100 0.0 WNW 48 74 26 40 - - 0.8
01/09:30am 2.8 -7.9 2.8 100 0.0 WNW 48 67 26 36 - - 0.8
01/09:06am 3.0 -5.9 3.0 100 0.0 WNW 39 57 21 31 - - 0.0
01/09:00am 2.9 -6.8 2.9 100 0.0 WNW 43 57 23 31 - - 30.4
01/08:30am 2.7 -7.0 2.7 100 0.0 WNW 43 61 23 33 - - 29.0
01/08:01am 2.3 -6.0 2.3 100 0.0 WNW 35 56 19 30 - - 28.0
01/08:00am 2.3 -6.0 2.3 100 0.0 WNW 35 52 19 28 - - 28.0
01/07:30am 2.0 -6.3 2.0 100 0.0 WNW 35 54 19 29 - - 27.4
01/07:00am 1.6 -5.5 1.6 100 0.0 WNW 28 54 15 29 - - 26.6
01/06:59am 1.6 -5.5 1.6 100 0.0 WNW 28 54 15 29 - - 26.6
01/06:30am 1.5 -6.0 1.5 100 0.0 WNW 30 46 16 25 - - 25.6
01/06:00am 1.5 -6.9 1.5 100 0.0 WNW 35 54 19 29 - - 24.6
01/05:57am 1.5 -6.9 1.5 100 0.0 WNW 35 54 19 29 - - 24.6
01/05:30am 1.5 -8.4 1.5 100 0.0 WNW 43 56 23 30 - - 24.4
01/05:12am 1.5 -6.9 1.5 100 0.0 WNW 35 54 19 29 - - 24.4
01/05:00am 1.5 -6.5 1.5 100 0.0 WNW 33 50 18 27 - - 24.4
01/04:54am 1.5 -6.3 1.5 100 0.0 WNW 32 50 17 27 - - 24.4
01/04:30am 1.5 -6.0 1.5 100 0.0 WNW 30 43 16 23 - - 24.2
01/04:00am 1.3 -6.2 1.3 100 0.0 WNW 30 46 16 25 - - 24.2
01/03:32am 1.3 -7.5 1.3 100 0.0 WNW 37 56 20 30 - - 24.0
01/03:30am 1.2 -8.0 1.2 100 0.0 WNW 39 56 21 30 - - 24.0
01/03:28am 1.3 -7.1 1.3 100 0.0 WNW 35 56 19 30 - - 24.0
01/03:00am 1.3 -6.6 1.3 100 0.0 WNW 32 48 17 26 - - 24.0
01/02:43am 1.3 -6.6 1.3 100 0.0 WNW 32 56 17 30 - - 23.8
01/02:30am 1.2 -6.3 1.2 100 0.0 WNW 30 41 16 22 - - 23.6
01/02:00am 1.2 -6.7 1.2 100 0.0 WNW 32 44 17 24 - - 23.6
01/01:42am 1.1 -6.8 1.1 100 0.0 WNW 32 50 17 27 - - 23.6
01/01:30am 1.1 -7.0 1.1 100 0.0 WNW 33 48 18 26 - - 23.6
01/01:00am 1.0 -5.4 1.0 100 0.0 WNW 24 35 13 19 - - 23.6
01/12:30am 1.1 -5.3 1.1 100 0.0 WNW 24 35 13 19 - - 23.4
01/12:00am 1.0 -5.0 1.0 100 0.0 WNW 22 32 12 17 - - 23.4
 
Date/Time
EST
Temp
°C
App
Temp
°C
Dew
Point
°C
Rel
Hum
%
Delta-T
°C
Wind Press
QNH
hPa
Press
MSL
hPa
Rain since
9am
mm
Dir  Spd
km/h
Gust
km/h
Spd
kts
Gust
kts
30/11:30pm 1.1 -4.9 1.1 100 0.0 WNW 22 37 12 20 - - 23.4
30/11:00pm 1.0 -5.4 1.0 100 0.0 WNW 24 33 13 18 - - 23.0
30/10:30pm 1.0 -5.4 1.0 100 0.0 WNW 24 39 13 21 - - 23.0
30/10:00pm 1.0 -5.4 1.0 100 0.0 WNW 24 33 13 18 - - 23.0
30/09:30pm 1.0 -5.4 1.0 100 0.0 WNW 24 33 13 18 - - 23.0
30/09:07pm 0.9 -6.3 0.9 100 0.0 WNW 28 48 15 26 - - 22.8
30/09:00pm 0.9 -4.7 0.9 100 0.0 WNW 20 32 11 17 - - 22.8
30/08:30pm 0.8 -7.3 0.8 100 0.0 WNW 33 46 18 25 - - 22.8
30/08:00pm 0.6 -6.6 0.6 100 0.0 WNW 28 44 15 24 - - 22.6
30/07:42pm 0.3 -7.0 0.3 100 0.0 WNW 28 46 15 25 - - 21.8
30/07:30pm 0.8 -6.0 0.8 100 0.0 NW 26 41 14 22 - - 20.4
30/07:08pm 0.8 -6.4 0.8 100 0.0 W 28 48 15 26 - - 19.8
30/07:00pm 1.0 -5.4 1.0 100 0.0 W 24 43 13 23 - - 19.6
30/06:30pm 0.7 -6.9 0.7 100 0.0 WNW 30 57 16 31 - - 19.4
30/06:04pm 0.5 -7.5 0.5 100 0.0 WNW 32 50 17 27 - - 19.2
30/06:00pm 0.6 -7.9 0.6 100 0.0 WNW 35 50 19 27 - - 19.2
30/05:33pm 0.4 -6.8 0.4 100 0.0 WNW 28 46 15 25 - - 18.8
30/05:30pm 0.2 -6.3 0.2 100 0.0 WNW 24 43 13 23 - - 18.8
30/05:00pm 0.3 -8.7 0.3 100 0.0 WNW 37 63 20 34 - - 17.4
30/04:32pm 0.3 -7.3 0.3 100 0.0 WNW 30 50 16 27 - - 15.6
30/04:30pm 0.4 -7.2 0.4 100 0.0 WNW 30 44 16 24 - - 15.6
30/04:00pm 0.5 -8.1 0.5 100 0.0 WNW 35 54 19 29 - - 14.0
30/03:30pm 0.7 -7.3 0.7 100 0.0 NW 32 52 17 28 - - 12.8
30/03:00pm 0.6 -7.4 0.6 100 0.0 WNW 32 50 17 27 - - 11.4
30/02:49pm 0.5 -7.1 0.5 100 0.0 WNW 30 48 16 26 - - 11.4
30/02:30pm 0.2 -6.3 0.2 100 0.0 WNW 24 35 13 19 - - 10.4
30/02:00pm 0.2 -5.4 0.2 100 0.0 WNW 19 26 10 14 - - 9.2
30/01:30pm -0.1 -5.3 -0.1 100 0.0 NW 17 22 9 12 - - 8.0
30/01:00pm -0.1 -5.7 -0.1 100 0.0 NNW 19 24 10 13 - - 6.8
30/12:30pm -0.2 -5.8 -0.2 100 0.0 NW 19 26 10 14 - - 6.2
30/12:00pm -0.1 -7.1 -0.2 99 0.0 NNW 26 33 14 18 - - 4.8
30/11:30am -0.1 -6.3 -0.1 100 0.0 N 22 32 12 17 - - 4.0
30/11:00am -0.3 -6.5 -0.4 99 0.0 NNW 22 30 12 16 - - 3.4
30/10:30am -0.5 -7.1 -0.6 99 0.0 NNW 24 33 13 18 - - 2.2
30/10:00am -0.6 -7.6 -0.7 99 0.0 N 26 33 14 18 - - 1.8
30/09:30am -0.5 -6.7 -0.6 99 0.0 N 22 32 12 17 - - 1.0
30/09:00am -0.4 -7.4 -0.4 100 0.0 N 26 37 14 20 - - 27.2
30/08:30am -0.4 -6.1 -0.5 99 0.0 N 19 28 10 15 - - 26.8
30/08:00am -0.6 -6.3 -0.7 99 0.0 N 19 24 10 13 - - 26.6
30/07:30am -0.7 -6.4 -0.8 99 0.0 N 19 26 10 14 - - 26.0
30/07:00am -0.9 -6.6 -1.0 99 0.0 N 19 26 10 14 - - 24.8
30/06:30am -0.8 -7.5 -0.9 99 0.0 N 24 32 13 17 - - 23.8
30/06:00am -0.9 -7.2 -1.0 99 0.0 N 22 32 12 17 - - 23.0
30/05:30am -1.0 -8.5 -1.1 99 0.0 N 28 37 15 20 - - 22.6
30/05:00am -1.1 -8.6 -1.2 99 0.0 N 28 41 15 22 - - 22.0
30/04:30am -1.1 -8.2 -1.2 99 0.0 N 26 39 14 21 - - 21.4
30/04:00am -1.2 -7.2 -1.3 99 0.0 N 20 30 11 16 - - 20.8
30/03:30am -1.2 -7.2 -1.3 99 0.0 N 20 28 11 15 - - 20.2
30/03:00am -1.0 -6.7 -1.1 99 0.0 N 19 26 10 14 - - 19.2
30/02:30am -0.8 -6.1 -0.9 99 0.0 N 17 28 9 15 - - 18.2
30/02:00am -0.6 -5.5 -0.7 99 0.0 N 15 22 8 12 - - 17.2
30/01:30am -0.5 -5.0 -0.6 99 0.0 N 13 17 7 9 - - 16.4
30/01:00am -0.7 -5.6 -0.8 99 0.0 NNW 15 24 8 13 - - 16.0
30/12:30am -0.5 -6.2 -0.6 99 0.0 NNW 19 26 10 14 - - 15.6
30/12:00am -0.5 -6.7 -0.6 99 0.0 NNW 22 30 12 16 - - 15.2
 
Date/Time
EST
Temp
°C
App
Temp
°C
Dew
Point
°C
Rel
Hum
%
Delta-T
°C
Wind Press
QNH
hPa
Press
MSL
hPa
Rain since
9am
mm
Dir  Spd
km/h
Gust
km/h
Spd
kts
Gust
kts
29/11:30pm -0.5 -6.7 -0.6 99 0.0 NNW 22 30 12 16 - - 14.4
29/11:00pm -1.0 -6.7 -1.1 99 0.0 WNW 19 26 10 14 - - 13.2
29/10:30pm -0.5 -8.6 -0.6 99 0.0 NNW 32 43 17 23 - - 12.0
29/10:00pm -0.5 -8.6 -0.6 99 0.0 NNW 32 50 17 27 - - 11.4
29/09:30pm -0.6 -9.7 -0.7 99 0.0 NW 37 56 20 30 - - 11.2
29/09:26pm -0.6 -9.3 -0.7 99 0.0 NW 35 56 19 30 - - 11.2
29/09:00pm -0.7 -9.1 -0.8 99 0.0 NW 33 46 18 25 - - 11.0
29/08:45pm -0.8 -9.2 -0.9 99 0.0 NW 33 52 18 28 - - 11.0
29/08:30pm -0.7 -9.4 -0.8 99 0.0 WNW 35 48 19 26 - - 10.8
29/08:13pm -0.5 -7.9 -0.6 99 0.0 NW 28 48 15 26 - - 10.4
29/08:00pm -0.5 -8.6 -0.6 99 0.0 NW 32 46 17 25 - - 10.0
29/07:30pm -0.5 -6.4 -0.6 99 0.0 NW 20 30 11 16 - - 9.6
29/07:00pm -0.5 -9.2 -0.6 99 0.0 NW 35 59 19 32 - - 8.6
29/06:48pm -0.2 -7.5 -0.3 99 0.0 WNW 28 46 15 25 - - 8.0
29/06:30pm 1.5 -4.1 -0.3 88 0.7 NW 19 28 10 15 - - 7.6
29/06:00pm 1.7 -5.0 -1.2 81 1.1 NNW 24 43 13 23 - - 7.6
29/05:30pm 1.7 -4.0 0.5 92 0.5 NNW 20 30 11 16 - - 7.6
29/05:00pm 1.8 -3.7 1.7 99 0.0 NW 20 33 11 18 - - 7.6
29/04:30pm 1.5 -4.8 1.4 99 0.0 WNW 24 39 13 21 - - 7.6
29/04:00pm 1.6 -5.1 1.5 99 0.0 NW 26 39 14 21 - - 7.6
29/03:32pm 0.0 -8.6 -0.1 99 0.0 NW 35 56 19 30 - - 7.6
29/03:30pm 0.0 -9.4 -0.1 99 0.0 NW 39 56 21 30 - - 7.6
29/03:11pm 0.5 -6.7 0.4 99 0.0 NW 28 67 15 36 - - 7.6
29/03:00pm 1.4 -4.2 1.3 99 0.0 NW 20 30 11 16 - - 7.4
29/02:30pm 0.5 -4.3 0.4 99 0.0 NW 15 35 8 19 - - 7.4
29/02:00pm -0.1 -7.8 -0.2 99 0.0 WNW 30 54 16 29 - - 7.4
29/01:30pm 0.6 -8.7 0.5 99 0.0 WNW 39 61 21 33 - - 6.6
29/01:15pm 1.5 -6.0 1.4 99 0.0 NW 30 54 16 29 - - 6.4
29/01:00pm 3.6 -3.4 2.1 90 0.7 NNW 28 41 15 22 - - 6.2
29/12:36pm 3.1 -4.0 1.2 87 0.8 NNW 28 46 15 25 - - 6.0
29/12:30pm 3.5 -2.9 3.1 97 0.2 NW 26 41 14 22 - - 6.0
29/12:07pm 3.0 -3.9 2.7 98 0.1 WNW 28 56 15 30 - - 6.0
29/12:00pm 3.3 -3.5 3.2 99 0.0 NW 28 43 15 23 - - 6.0
29/11:43am 2.8 -4.5 2.7 99 0.0 NW 30 52 16 28 - - 6.0
29/11:30am 3.4 -2.2 3.3 99 0.0 NNW 22 35 12 19 - - 6.0
29/11:00am 2.3 -2.9 2.2 99 0.0 NNW 19 30 10 16 - - 6.0
29/10:43am 2.3 -6.0 2.2 99 0.0 NW 35 65 19 35 - - 5.8
29/10:30am 2.8 -6.2 2.7 99 0.0 NW 39 57 21 31 - - 5.4
29/10:09am 4.4 -2.2 4.3 99 0.0 NW 28 52 15 28 - - 4.8
29/10:00am 4.9 -1.2 4.8 99 0.0 NNW 26 41 14 22 - - 4.6
29/09:41am 4.5 -2.0 4.5 100 0.0 NW 28 70 15 38 - - 4.4
29/09:40am 4.7 -1.0 4.7 100 0.0 NNW 24 56 13 30 - - 4.2
29/09:30am 4.8 -0.9 4.8 100 0.0 N 24 39 13 21 - - 2.0
29/09:01am 4.9 -1.6 4.9 100 0.0 N 28 48 15 26 - - 0.0
29/09:00am 5.0 -1.4 5.0 100 0.0 N 28 41 15 22 - - 13.2
29/08:35am 5.0 -2.8 5.0 100 0.0 NNE 35 56 19 30 - - 10.6
29/08:30am 5.0 -2.2 5.0 100 0.0 NNE 32 48 17 26 - - 10.0
29/08:00am 5.0 -2.2 4.9 99 0.0 NNE 32 44 17 24 - - 8.8
29/07:30am 5.2 -3.3 5.1 99 0.0 NNE 39 57 21 31 - - 7.8
29/07:08am 5.3 -1.9 5.2 99 0.0 NNE 32 50 17 27 - - 6.0
29/07:00am 5.3 -2.8 5.2 99 0.0 NNE 37 59 20 32 - - 5.6
29/06:30am 5.3 -4.9 5.2 99 0.0 NNE 48 72 26 39 - - 4.6
29/06:00am 5.3 -5.7 5.2 99 0.0 NNE 52 80 28 43 - - 3.8
29/05:30am 4.7 -6.0 4.6 99 0.0 NNE 50 70 27 38 - - 2.6
29/05:00am 4.6 -4.8 4.5 99 0.0 NNE 43 67 23 36 - - 0.8
29/04:30am 4.5 -4.9 4.4 99 0.0 NNE 43 69 23 37 - - 0.4
29/04:00am 4.8 -3.1 4.5 98 0.1 NNE 35 56 19 30 - - 0.0
29/03:38am 5.2 -1.9 3.7 90 0.7 N 30 48 16 26 - - 0.0
29/03:30am 5.4 -1.4 2.9 84 1.1 NNE 28 39 15 21 - - 0.0
29/03:04am 5.4 -1.6 1.7 77 1.6 NNE 28 48 15 26 - - 0.0
29/03:00am 5.4 -1.3 1.7 77 1.6 N 26 41 14 22 - - 0.0
29/02:30am 5.6 -1.9 1.3 74 1.9 NNE 30 43 16 23 - - 0.0
29/02:00am 5.7 -2.7 1.8 76 1.7 N 35 52 19 28 - - 0.0
29/01:30am 5.6 -3.1 1.9 77 1.6 NNE 37 57 20 31 - - 0.0
29/01:00am 5.4 -4.2 1.3 75 1.8 NNE 41 59 22 32 - - 0.0
29/12:32am 5.1 -4.2 0.5 72 2.0 NNE 39 57 21 31 - - 0.0
29/12:30am 5.0 -4.3 0.8 74 1.8 NNE 39 56 21 30 - - 0.0
29/12:03am 5.5 -3.7 1.4 75 1.8 NNE 39 61 21 33 - - 0.0
29/12:00am 5.2 -3.5 1.7 78 1.5 NNE 37 50 20 27 - - 0.0
 
Date/Time
EST
Temp
°C
App
Temp
°C
Dew
Point
°C
Rel
Hum
%
Delta-T
°C
Wind Press
QNH
hPa
Press
MSL
hPa
Rain since
9am
mm
Dir  Spd
km/h
Gust
km/h
Spd
kts
Gust
kts
28/11:44pm 5.3 -3.4 2.0 79 1.5 NNE 37 56 20 30 - - 0.0

Other Formats:

Comma delimited format used in spreadsheet applications
http://www.bom.gov.au/fwo/IDN60801/IDN60801.95916.axf

JavaScript Object Notation format (JSON) in row-major order
http://www.bom.gov.au/fwo/IDN60801/IDN60801.95916.json